Time;durP1;ratioP1;P1;durP2;ratioP2;P2;SDS_P1;SDS_P2;PMS_P1;PMS_P2;Temp;Humidity;BMP_temperature;BMP_pressure;BME280_temperature;BME280_humidity;BME280_pressure;Samples;Min_cycle;Max_cycle;Signal;HPM_P1;HPM_P2
2024/02/29 00:02:16;;;;;;;0.30;0.20;;;;;;;4.30;92.05;100645.69;5002292;28;20827;-50
2024/02/29 00:04:43;;;;;;;0.30;0.10;;;;;;;4.23;92.52;100638.66;5015071;28;20459;-50
2024/02/29 00:07:09;;;;;;;0.30;0.20;;;;;;;4.26;92.91;100639.56;5015124;28;20473;-50
2024/02/29 00:09:36;;;;;;;0.20;0.10;;;;;;;4.39;92.71;100638.72;5014554;28;20452;-50
2024/02/29 00:12:03;;;;;;;0.30;0.10;;;;;;;4.21;93.40;100636.00;5015031;28;20555;-50
2024/02/29 00:14:30;;;;;;;0.30;0.20;;;;;;;4.28;92.94;100632.53;5014920;28;20449;-51
2024/02/29 00:16:58;;;;;;;0.30;0.10;;;;;;;4.35;93.49;100634.28;5009746;28;20886;-50
2024/02/29 00:19:24;;;;;;;0.30;0.10;;;;;;;4.39;93.47;100630.81;5015110;28;20840;-49
2024/02/29 00:21:51;;;;;;;0.30;0.10;;;;;;;4.41;93.46;100626.44;5014965;28;20451;-48
2024/02/29 00:24:17;;;;;;;0.30;0.20;;;;;;;4.40;92.80;100623.81;5014493;28;20536;-48
2024/02/29 00:26:43;;;;;;;0.30;0.17;;;;;;;4.47;92.56;100613.25;5014548;28;20455;-49
2024/02/29 00:29:10;;;;;;;0.27;0.10;;;;;;;4.56;92.69;100619.44;5014701;28;20449;-49
2024/02/29 00:31:42;;;;;;;0.20;0.10;;;;;;;4.47;92.71;100623.78;5014298;28;20935;-49
2024/02/29 00:34:08;;;;;;;0.30;0.20;;;;;;;4.47;92.66;100622.91;5014404;28;20449;-49
2024/02/29 00:36:35;;;;;;;0.27;0.10;;;;;;;4.43;93.36;100623.78;5013683;28;20452;-49
2024/02/29 00:39:01;;;;;;;0.30;0.20;;;;;;;4.58;92.57;100617.66;5013945;28;20472;-50
2024/02/29 00:41:40;;;;;;;0.27;0.20;;;;;;;4.44;92.21;100622.91;5014089;28;20502;-49
2024/02/29 00:44:06;;;;;;;0.30;0.10;;;;;;;4.55;92.18;100617.69;5014146;28;20539;-50
2024/02/29 00:46:32;;;;;;;0.30;0.17;;;;;;;4.70;91.43;100602.75;5004767;28;20456;-50
2024/02/29 00:48:59;;;;;;;0.30;0.10;;;;;;;4.55;91.82;100613.28;5010463;28;20482;-50
2024/02/29 00:51:25;;;;;;;0.27;0.10;;;;;;;4.43;92.39;100608.88;5013792;28;20484;-50
2024/02/29 00:53:52;;;;;;;0.30;0.10;;;;;;;4.37;93.01;100603.59;5008572;28;20467;-50
2024/02/29 00:56:19;;;;;;;0.30;0.10;;;;;;;4.37;92.57;100603.59;4994256;28;20504;-51
2024/02/29 00:58:45;;;;;;;0.30;0.20;;;;;;;4.43;92.97;100597.47;5011785;28;20568;-51
2024/02/29 01:01:12;;;;;;;0.30;0.30;;;;;;;4.30;92.23;100599.22;5002911;28;20477;-51
2024/02/29 01:03:38;;;;;;;0.27;0.20;;;;;;;4.16;92.49;100600.94;5011629;28;20958;-50
2024/02/29 01:06:07;;;;;;;0.20;0.10;;;;;;;4.15;92.78;100597.44;5013728;28;20457;-50
2024/02/29 01:08:33;;;;;;;0.30;0.10;;;;;;;4.06;92.86;100596.53;5013498;28;20587;-50
2024/02/29 01:11:00;;;;;;;0.30;0.10;;;;;;;4.13;92.81;100598.31;5013441;28;20453;-49
2024/02/29 01:13:27;;;;;;;0.30;0.10;;;;;;;3.90;93.15;100594.72;5013575;28;20499;-50
2024/02/29 01:15:54;;;;;;;0.20;0.10;;;;;;;4.13;93.58;100595.69;5009457;28;20457;-49
2024/02/29 01:18:20;;;;;;;0.30;0.17;;;;;;;4.14;93.62;100594.81;5012049;28;20468;-50
2024/02/29 01:20:47;;;;;;;0.30;0.10;;;;;;;4.01;93.53;100591.25;5013372;28;20502;-49
2024/02/29 01:23:14;;;;;;;0.30;0.10;;;;;;;3.85;93.43;100595.59;5013326;28;20523;-50
2024/02/29 01:25:40;;;;;;;0.20;0.20;;;;;;;3.80;93.19;100584.16;5013041;28;20503;-49
2024/02/29 01:28:07;;;;;;;0.20;0.10;;;;;;;3.56;92.70;100582.34;5013059;28;20469;-50
2024/02/29 01:30:33;;;;;;;0.20;0.10;;;;;;;3.55;93.30;100580.56;5013358;28;20452;-50
2024/02/29 01:33:00;;;;;;;0.20;0.10;;;;;;;3.37;92.98;100588.34;5012953;28;20922;-50
2024/02/29 01:35:26;;;;;;;0.30;0.10;;;;;;;3.26;93.41;100583.03;5012603;28;20448;-50
2024/02/29 01:37:53;;;;;;;0.30;0.10;;;;;;;3.23;93.38;100577.78;5012695;28;20468;-50
2024/02/29 01:40:19;;;;;;;0.30;0.10;;;;;;;3.19;92.45;100570.75;5013415;28;20480;-51
2024/02/29 01:42:46;;;;;;;0.30;0.10;;;;;;;3.06;93.31;100563.66;5013198;28;20950;-50
2024/02/29 01:45:13;;;;;;;0.30;0.10;;;;;;;3.11;93.35;100559.31;5013055;28;20480;-50
2024/02/29 01:47:40;;;;;;;0.30;0.10;;;;;;;3.10;93.24;100561.94;4997747;28;20473;-50
2024/02/29 01:50:08;;;;;;;0.30;0.10;;;;;;;2.98;92.75;100558.34;5012857;28;20568;-50
2024/02/29 01:52:38;;;;;;;0.20;0.10;;;;;;;2.85;92.37;100550.38;5012761;28;20489;-50
2024/02/29 01:55:05;;;;;;;0.30;0.10;;;;;;;2.75;93.12;100548.59;4999169;28;20456;-50
2024/02/29 01:57:32;;;;;;;0.20;0.10;;;;;;;2.86;92.81;100547.78;4999776;28;20487;-50
2024/02/29 01:59:59;;;;;;;0.20;0.10;;;;;;;2.68;93.17;100542.41;5011017;28;20453;-50
2024/02/29 02:02:25;;;;;;;0.20;0.10;;;;;;;2.64;92.91;100543.25;5001217;28;20467;-50
2024/02/29 02:04:52;;;;;;;0.20;0.10;;;;;;;2.65;93.37;100539.75;5012623;28;20459;-50
2024/02/29 02:07:18;;;;;;;0.20;0.10;;;;;;;2.61;92.73;100543.25;5012511;28;20514;-51
2024/02/29 02:09:45;;;;;;;0.20;0.10;;;;;;;2.65;92.94;100542.38;5012650;28;20523;-50
2024/02/29 02:12:13;;;;;;;0.30;0.10;;;;;;;2.54;93.21;100542.28;5012685;28;20488;-50
2024/02/29 02:14:40;;;;;;;0.30;0.20;;;;;;;2.48;93.96;100537.00;5012881;28;20540;-50
2024/02/29 02:17:07;;;;;;;0.20;0.10;;;;;;;2.31;95.13;100539.47;5007069;28;20551;-50
2024/02/29 02:19:34;;;;;;;0.20;0.10;;;;;;;2.62;93.66;100537.13;5012414;28;20452;-50
2024/02/29 02:22:03;;;;;;;0.30;0.20;;;;;;;2.64;93.20;100541.50;5012442;28;20476;-50
2024/02/29 02:24:35;;;;;;;0.20;0.10;;;;;;;2.58;94.22;100541.44;5012175;28;20460;-50
2024/02/29 02:27:03;;;;;;;0.20;0.10;;;;;;;2.51;93.84;100538.78;5012680;28;20464;-49
2024/02/29 02:29:29;;;;;;;0.20;0.10;;;;;;;2.58;93.27;100530.06;5012304;28;20456;-50
2024/02/29 02:31:56;;;;;;;0.20;0.10;;;;;;;2.52;92.37;100527.41;5012303;28;20524;-49
2024/02/29 02:34:22;;;;;;;0.20;0.10;;;;;;;2.47;93.60;100516.00;5011129;28;20515;-50
2024/02/29 02:36:49;;;;;;;0.20;0.10;;;;;;;2.50;93.86;100509.03;5011186;28;20557;-50
2024/02/29 02:39:15;;;;;;;0.20;0.10;;;;;;;2.52;94.38;100509.94;5012502;28;20448;-51
2024/02/29 02:41:44;;;;;;;0.20;0.10;;;;;;;2.25;95.80;100507.97;5012477;28;20456;-50
2024/02/29 02:44:12;;;;;;;0.20;0.10;;;;;;;2.33;96.05;100495.81;5012343;28;20540;-51
2024/02/29 02:46:38;;;;;;;0.20;0.10;;;;;;;2.39;94.80;100500.22;5001212;28;20545;-51
2024/02/29 02:49:05;;;;;;;0.20;0.10;;;;;;;2.40;93.78;100493.22;5010555;28;20559;-50
2024/02/29 02:51:31;;;;;;;0.20;0.10;;;;;;;2.32;93.52;100488.78;5011342;28;20830;-50
2024/02/29 02:53:58;;;;;;;0.20;0.10;;;;;;;2.22;93.08;100489.59;5006312;28;20998;-49
2024/02/29 02:56:24;;;;;;;0.20;0.10;;;;;;;2.19;93.65;100496.53;4992739;28;20824;-49
2024/02/29 02:58:51;;;;;;;0.20;0.10;;;;;;;2.21;93.34;100486.97;5058973;22;20498;-47
2024/02/29 03:01:17;;;;;;;0.20;0.10;;;;;;;2.24;93.01;100482.59;5072653;28;20485;-48
2024/02/29 03:03:44;;;;;;;0.20;0.10;;;;;;;2.23;92.86;100480.84;5072946;28;20528;-48
2024/02/29 03:06:13;;;;;;;0.20;0.10;;;;;;;2.25;93.39;100476.50;5073286;28;20450;-48
2024/02/29 03:08:40;;;;;;;0.20;0.10;;;;;;;2.04;93.19;100474.56;5071024;28;20466;-48
2024/02/29 03:11:07;;;;;;;0.20;0.10;;;;;;;2.17;93.22;100464.19;5073271;28;20507;-47
2024/02/29 03:13:33;;;;;;;0.20;0.10;;;;;;;2.07;92.63;100474.59;5076001;28;20568;-48
2024/02/29 03:16:00;;;;;;;0.20;0.10;;;;;;;1.97;92.98;100472.75;5065922;28;20486;-48
2024/02/29 03:18:26;;;;;;;0.20;0.10;;;;;;;1.94;93.31;100459.63;5075461;28;20470;-47
2024/02/29 03:20:53;;;;;;;0.30;0.10;;;;;;;1.91;93.62;100461.31;5076304;28;20488;-48
2024/02/29 03:23:20;;;;;;;0.20;0.10;;;;;;;2.00;92.98;100459.69;5066256;28;20862;-48
2024/02/29 03:25:47;;;;;;;0.20;0.10;;;;;;;1.83;93.10;100452.53;5076039;28;20485;-47
2024/02/29 03:28:13;;;;;;;0.20;0.10;;;;;;;1.78;93.84;100444.59;5076140;28;20552;-48
2024/02/29 03:30:40;;;;;;;0.20;0.10;;;;;;;1.88;94.14;100456.06;5075918;28;20529;-48
2024/02/29 03:33:07;;;;;;;0.20;0.10;;;;;;;1.87;93.64;100452.56;5049520;28;20535;-48
2024/02/29 03:35:34;;;;;;;0.20;0.10;;;;;;;1.75;93.72;100434.09;5074378;28;20476;-48
2024/02/29 03:38:00;;;;;;;0.20;0.10;;;;;;;1.78;93.34;100442.91;5075555;28;20493;-48
2024/02/29 03:40:27;;;;;;;0.20;0.10;;;;;;;1.70;93.77;100444.56;5075963;28;20541;-48
2024/02/29 03:42:54;;;;;;;0.20;0.10;;;;;;;1.73;93.62;100447.19;5075893;28;20454;-48
2024/02/29 03:45:21;;;;;;;0.30;0.10;;;;;;;1.81;93.25;100451.66;5075911;28;20452;-48
2024/02/29 03:47:48;;;;;;;0.20;0.10;;;;;;;1.67;93.22;100449.78;5049637;28;20970;-48
2024/02/29 03:50:14;;;;;;;0.20;0.10;;;;;;;1.72;93.79;100450.69;5075566;28;20473;-48
2024/02/29 03:52:40;;;;;;;1.13;1.07;;;;;;;1.69;93.41;100449.78;5075855;28;20521;-48
2024/02/29 03:55:08;;;;;;;0.20;0.10;;;;;;;1.52;93.90;100447.00;5061470;28;20461;-48
2024/02/29 03:57:34;;;;;;;0.20;0.10;;;;;;;1.62;92.82;100442.72;5075310;28;20508;-49
2024/02/29 04:00:02;;;;;;;0.20;0.10;;;;;;;1.53;93.26;100440.03;5072295;28;20914;-48
2024/02/29 04:02:29;;;;;;;0.20;0.10;;;;;;;1.57;94.05;100434.81;5052531;28;20485;-48
2024/02/29 04:04:55;;;;;;;0.20;0.10;;;;;;;1.58;93.05;100435.69;5070442;28;20481;-48
2024/02/29 04:07:22;;;;;;;0.20;0.10;;;;;;;1.59;93.91;100440.94;5075468;28;20456;-48
2024/02/29 04:09:48;;;;;;;0.20;0.10;;;;;;;1.56;92.69;100438.31;5074974;28;20454;-48
2024/02/29 04:12:14;;;;;;;0.20;0.20;;;;;;;1.46;93.27;100437.31;5075182;28;20485;-48
2024/02/29 04:14:41;;;;;;;0.20;0.20;;;;;;;1.46;93.80;100432.09;5075181;28;20504;-47
2024/02/29 04:17:08;;;;;;;0.20;0.10;;;;;;;1.39;93.70;100442.50;5063698;28;20817;-48
2024/02/29 04:19:34;;;;;;;0.20;0.10;;;;;;;1.43;94.48;100442.53;5075242;28;20533;-48
2024/02/29 04:22:00;;;;;;;0.20;0.10;;;;;;;1.58;93.62;100447.06;5075234;28;20538;-48
2024/02/29 04:24:27;;;;;;;0.20;0.10;;;;;;;1.46;92.25;100442.56;5073232;28;20537;-50
2024/02/29 04:26:53;;;;;;;0.20;0.20;;;;;;;1.29;92.84;100438.88;5062733;28;21034;-48
2024/02/29 04:29:20;;;;;;;0.30;0.10;;;;;;;1.12;93.88;100440.44;5074782;28;20472;-48
2024/02/29 04:31:48;;;;;;;0.20;0.10;;;;;;;1.17;95.29;100433.50;5074699;28;20450;-47
2024/02/29 04:34:14;;;;;;;0.20;0.10;;;;;;;1.05;96.00;100441.22;5073317;28;20486;-48
2024/02/29 04:36:41;;;;;;;0.20;0.10;;;;;;;1.04;96.40;100435.09;5074588;28;20450;-47
2024/02/29 04:39:07;;;;;;;0.20;0.10;;;;;;;0.99;96.13;100433.28;5073771;28;20473;-48
2024/02/29 04:41:34;;;;;;;0.20;0.20;;;;;;;1.14;96.76;100425.63;5074128;28;20453;-48
2024/02/29 04:44:00;;;;;;;0.20;0.10;;;;;;;1.19;95.82;100422.19;5074347;28;20446;-47
2024/02/29 04:46:27;;;;;;;0.20;0.10;;;;;;;1.20;95.03;100415.22;5056566;28;20476;-48
2024/02/29 04:48:53;;;;;;;0.20;0.10;;;;;;;1.02;94.50;100421.13;5065422;28;20553;-47
2024/02/29 04:51:20;;;;;;;0.20;0.10;;;;;;;1.16;94.39;100423.91;5074074;28;20456;-48
2024/02/29 04:53:47;;;;;;;0.20;0.10;;;;;;;1.02;94.98;100418.50;5070131;28;20570;-48
2024/02/29 04:56:13;;;;;;;0.20;0.10;;;;;;;1.13;94.54;100416.03;5062952;28;20789;-48
2024/02/29 04:58:40;;;;;;;0.20;0.10;;;;;;;1.14;94.54;100420.38;5068298;28;20474;-47
2024/02/29 05:01:07;;;;;;;0.20;0.10;;;;;;;1.02;95.28;100410.66;5044798;28;20522;-48
2024/02/29 05:03:34;;;;;;;0.20;0.10;;;;;;;1.04;95.70;100401.06;5071268;28;20442;-48
2024/02/29 05:06:01;;;;;;;0.20;0.10;;;;;;;1.23;95.30;100396.03;5074376;28;20446;-48
2024/02/29 05:08:28;;;;;;;0.20;0.10;;;;;;;1.41;94.66;100396.25;5074645;28;20557;-48
2024/02/29 05:10:54;;;;;;;0.20;0.10;;;;;;;1.47;94.40;100383.19;5075739;28;20452;-48
2024/02/29 05:13:21;;;;;;;0.20;0.10;;;;;;;1.57;93.75;100392.91;5074876;28;20494;-48
2024/02/29 05:15:47;;;;;;;0.20;0.10;;;;;;;1.23;93.59;100396.91;5067730;28;20447;-48
2024/02/29 05:18:14;;;;;;;0.20;0.10;;;;;;;1.24;93.68;100397.81;5069692;28;20553;-47
2024/02/29 05:20:40;;;;;;;0.20;0.10;;;;;;;1.29;93.77;100397.00;5073881;28;20449;-48
2024/02/29 05:23:08;;;;;;;0.20;0.10;;;;;;;1.26;95.22;100396.97;5073807;28;20968;-48
2024/02/29 05:25:35;;;;;;;0.20;0.10;;;;;;;1.38;96.05;100394.47;5074007;28;20499;-48
2024/02/29 05:28:02;;;;;;;0.20;0.20;;;;;;;1.82;98.01;100394.00;5073552;28;20473;-49
2024/02/29 05:30:29;;;;;;;0.20;0.10;;;;;;;1.88;99.07;100390.53;5074405;28;20450;-48
2024/02/29 05:32:55;;;;;;;0.20;0.10;;;;;;;1.55;99.96;100385.91;5073416;28;20535;-48
2024/02/29 05:35:22;;;;;;;0.20;0.10;;;;;;;1.73;100.00;100386.06;5072825;28;20445;-48
2024/02/29 05:37:49;;;;;;;0.20;0.10;;;;;;;1.99;100.00;100378.41;5072646;28;20990;-48
2024/02/29 05:40:15;;;;;;;0.20;0.20;;;;;;;2.04;99.98;100369.69;5073083;28;20537;-48
2024/02/29 05:42:42;;;;;;;0.20;0.10;;;;;;;1.92;100.00;100385.38;5071804;28;20484;-48
2024/02/29 05:45:10;;;;;;;0.20;0.10;;;;;;;2.09;100.00;100377.63;5072833;28;20445;-48
2024/02/29 05:47:37;;;;;;;7.13;6.70;;;;;;;2.17;100.00;100380.28;5048278;28;20822;-48
2024/02/29 05:50:04;;;;;;;0.20;0.10;;;;;;;2.18;100.00;100377.66;5072779;28;20868;-48
2024/02/29 05:52:31;;;;;;;0.20;0.10;;;;;;;1.98;100.00;100369.66;5047343;28;20548;-48
2024/02/29 05:54:57;;;;;;;0.20;0.20;;;;;;;1.98;100.00;100377.53;5048264;28;20820;-48
2024/02/29 05:57:30;;;;;;;0.30;0.20;;;;;;;1.90;100.00;100371.34;5060601;28;20457;-48
2024/02/29 05:59:57;;;;;;;0.20;0.10;;;;;;;2.01;100.00;100374.06;5071125;28;20441;-48
2024/02/29 06:02:24;;;;;;;0.30;0.20;;;;;;;2.18;100.00;100376.78;5048741;28;20470;-48
2024/02/29 06:04:50;;;;;;;0.30;0.10;;;;;;;2.24;100.00;100369.84;5073071;28;20454;-48
2024/02/29 06:07:16;;;;;;;0.20;0.10;;;;;;;2.25;100.00;100374.22;5073015;28;20536;-48
2024/02/29 06:09:43;;;;;;;0.20;0.10;;;;;;;2.23;100.00;100377.72;5072356;28;20465;-48
2024/02/29 06:12:10;;;;;;;0.20;0.10;;;;;;;2.38;100.00;100370.81;5072593;28;20453;-48
2024/02/29 06:14:36;;;;;;;0.20;0.10;;;;;;;2.65;100.00;100375.31;5072204;28;20854;-48
2024/02/29 06:17:02;;;;;;;0.20;0.10;;;;;;;2.70;100.00;100372.72;5060101;28;20539;-48
2024/02/29 06:19:29;;;;;;;0.20;0.10;;;;;;;2.76;100.00;100379.75;5072016;28;20505;-48
2024/02/29 06:21:55;;;;;;;0.20;0.10;;;;;;;2.86;100.00;100376.28;5072387;28;20540;-47
2024/02/29 06:24:22;;;;;;;0.20;0.10;;;;;;;3.00;100.00;100377.19;5072192;28;20441;-48
2024/02/29 06:26:48;;;;;;;0.20;0.10;;;;;;;2.81;100.00;100375.38;5072195;28;20537;-48
2024/02/29 06:29:15;;;;;;;0.20;0.10;;;;;;;2.77;100.00;100379.75;5071828;28;20940;-48
2024/02/29 06:31:44;;;;;;;0.20;0.10;;;;;;;2.44;100.00;100377.81;5072118;28;20541;-47
2024/02/29 06:34:10;;;;;;;0.20;0.10;;;;;;;2.65;100.00;100380.56;5072198;28;20485;-48
2024/02/29 06:36:37;;;;;;;0.20;0.10;;;;;;;2.63;100.00;100376.19;5071204;28;20453;-48
2024/02/29 06:39:07;;;;;;;0.20;0.10;;;;;;;2.67;100.00;100378.81;5072385;28;20900;-48
2024/02/29 06:41:35;;;;;;;0.20;0.10;;;;;;;2.78;100.00;100365.75;5072026;28;20484;-48
2024/02/29 06:44:06;;;;;;;0.20;0.10;;;;;;;3.11;100.00;100364.13;5071892;28;20451;-47
2024/02/29 06:46:33;;;;;;;0.20;0.10;;;;;;;3.11;100.00;100364.13;5073495;28;20450;-48
2024/02/29 06:49:01;;;;;;;0.30;0.10;;;;;;;3.00;100.00;100358.81;5075988;28;20512;-48
2024/02/29 06:51:27;;;;;;;0.20;0.10;;;;;;;2.89;100.00;100369.31;5076159;28;20449;-47
2024/02/29 06:53:54;;;;;;;0.20;0.10;;;;;;;3.12;100.00;100365.88;5070825;28;20481;-47
2024/02/29 06:56:21;;;;;;;0.20;0.10;;;;;;;3.13;100.00;100363.25;5064962;28;20949;-48
2024/02/29 06:58:47;;;;;;;4.33;4.03;;;;;;;2.90;100.00;100359.69;5075381;28;20535;-48
2024/02/29 07:01:14;;;;;;;0.20;0.10;;;;;;;2.88;100.00;100364.94;5052879;28;20523;-47
2024/02/29 07:03:40;;;;;;;0.20;0.10;;;;;;;2.76;100.00;100353.50;5072537;28;20450;-48
2024/02/29 07:06:07;;;;;;;0.20;0.10;;;;;;;2.88;100.00;100357.06;5075928;28;20446;-48
2024/02/29 07:08:34;;;;;;;2.27;2.17;;;;;;;2.94;100.00;100353.56;5076624;28;20473;-48
2024/02/29 07:11:01;;;;;;;0.20;0.10;;;;;;;3.17;100.00;100348.38;5076316;28;20838;-48
2024/02/29 07:13:28;;;;;;;0.20;0.10;;;;;;;3.05;100.00;100348.34;5076149;28;20569;-48
2024/02/29 07:15:54;;;;;;;0.20;0.13;;;;;;;3.08;100.00;100343.97;5067832;28;20542;-47
2024/02/29 07:18:22;;;;;;;0.30;0.13;;;;;;;3.05;100.00;100345.72;5063180;28;20510;-48
2024/02/29 07:20:48;;;;;;;0.20;0.20;;;;;;;3.03;100.00;100344.84;5061152;28;20481;-48
2024/02/29 07:23:14;;;;;;;0.20;0.13;;;;;;;3.11;100.00;100343.97;5075419;28;20472;-48
2024/02/29 07:25:41;;;;;;;0.20;0.10;;;;;;;3.13;100.00;100341.34;5075503;28;20540;-48
2024/02/29 07:28:08;;;;;;;0.20;0.10;;;;;;;3.28;100.00;100346.63;5074991;28;20835;-48
2024/02/29 07:30:34;;;;;;;0.20;0.10;;;;;;;3.18;100.00;100344.88;5075140;28;20481;-48
2024/02/29 07:33:01;;;;;;;0.20;0.10;;;;;;;3.26;100.00;100337.88;5075091;28;20524;-48
2024/02/29 07:35:29;;;;;;;0.20;0.10;;;;;;;3.27;100.00;100339.63;5075153;28;20450;-48
2024/02/29 07:37:56;;;;;;;0.20;0.10;;;;;;;3.33;100.00;100339.66;5075348;28;20466;-48
2024/02/29 07:40:23;;;;;;;0.20;0.13;;;;;;;3.43;100.00;100336.19;5075580;28;20488;-46
2024/02/29 07:42:49;;;;;;;0.20;0.10;;;;;;;3.16;100.00;100334.38;5076187;28;20454;-46
2024/02/29 07:45:16;;;;;;;0.20;0.10;;;;;;;3.15;100.00;100331.72;5075923;28;20485;-47
2024/02/29 07:47:46;;;;;;;0.20;0.10;;;;;;;3.19;100.00;100334.38;5049892;28;20841;-46
2024/02/29 07:50:12;;;;;;;0.30;0.10;;;;;;;3.23;100.00;100330.00;5075752;28;20445;-46
2024/02/29 07:52:39;;;;;;;0.20;0.10;;;;;;;3.43;100.00;100333.56;5049305;28;20529;-47
2024/02/29 07:55:06;;;;;;;0.20;0.10;;;;;;;3.42;100.00;100333.53;5060258;28;20489;-48
2024/02/29 07:57:32;;;;;;;0.20;0.10;;;;;;;3.50;100.00;100329.16;5073906;28;20446;-47
2024/02/29 07:59:59;;;;;;;0.20;0.10;;;;;;;3.41;100.00;100332.66;5072265;28;20450;-46
2024/02/29 08:02:25;;;;;;;0.20;0.20;;;;;;;3.47;100.00;100335.28;5051524;28;20874;-47
2024/02/29 08:04:52;;;;;;;0.20;0.10;;;;;;;3.51;100.00;100328.28;5074854;28;20445;-46
2024/02/29 08:07:18;;;;;;;0.20;0.20;;;;;;;3.31;100.00;100328.28;5075275;28;20596;-47
2024/02/29 08:09:45;;;;;;;0.20;0.10;;;;;;;3.53;100.00;100329.16;5048899;28;20487;-47
2024/02/29 08:12:11;;;;;;;0.20;0.10;;;;;;;3.65;100.00;100325.66;5058357;28;20444;-47
2024/02/29 08:14:38;;;;;;;0.20;0.10;;;;;;;3.49;100.00;100319.53;5066358;28;20553;-46
2024/02/29 08:17:04;;;;;;;0.20;0.10;;;;;;;3.62;100.00;100315.16;5065745;28;20478;-46
2024/02/29 08:19:31;;;;;;;0.20;0.10;;;;;;;3.52;100.00;100314.25;5075113;28;20465;-47
2024/02/29 08:21:58;;;;;;;0.20;0.10;;;;;;;3.56;100.00;100316.00;5075679;28;20446;-47
2024/02/29 08:24:24;;;;;;;0.20;0.10;;;;;;;3.60;100.00;100316.91;5075640;28;20456;-48
2024/02/29 08:26:50;;;;;;;0.20;0.20;;;;;;;3.41;100.00;100318.63;5075863;28;20524;-47
2024/02/29 08:29:18;;;;;;;0.20;0.20;;;;;;;3.40;100.00;100330.91;5076140;28;20978;-47
2024/02/29 08:31:44;;;;;;;0.20;0.10;;;;;;;3.43;100.00;100324.78;5076468;28;20537;-46
2024/02/29 08:34:11;;;;;;;0.20;0.10;;;;;;;3.42;100.00;100320.38;5049278;28;20490;-46
2024/02/29 08:36:37;;;;;;;0.20;0.10;;;;;;;3.24;100.00;100318.63;5075453;28;20472;-46
2024/02/29 08:39:04;;;;;;;0.20;0.10;;;;;;;3.39;100.00;100313.38;5075174;28;20466;-46
2024/02/29 08:41:30;;;;;;;0.30;0.10;;;;;;;3.78;100.00;100309.00;5075676;28;20937;-46
2024/02/29 08:43:57;;;;;;;0.27;0.10;;;;;;;3.56;100.00;100306.41;5075481;28;20818;-46
2024/02/29 08:46:23;;;;;;;0.20;0.10;;;;;;;3.57;100.00;100304.66;5059010;28;20547;-47
2024/02/29 08:48:50;;;;;;;0.30;0.20;;;;;;;3.52;100.00;100309.00;5068954;28;20819;-46
2024/02/29 08:51:16;;;;;;;0.20;0.20;;;;;;;3.43;100.00;100314.28;5075132;28;20475;-46
2024/02/29 08:53:43;;;;;;;0.20;0.10;;;;;;;3.46;100.00;100311.66;5069654;28;20494;-47
2024/02/29 08:56:09;;;;;;;0.20;0.10;;;;;;;3.54;100.00;100302.00;5045191;28;20453;-46
2024/02/29 08:58:36;;;;;;;0.20;0.20;;;;;;;3.70;100.00;100303.78;5071683;28;20477;-47
2024/02/29 09:01:03;;;;;;;0.30;0.20;;;;;;;3.57;100.00;100299.41;5055041;28;20448;-47
2024/02/29 09:03:30;;;;;;;0.20;0.10;;;;;;;3.67;100.00;100301.13;5068792;28;20449;-47
2024/02/29 09:05:57;;;;;;;0.20;0.10;;;;;;;3.57;100.00;100304.66;5074662;28;20446;-46
2024/02/29 09:08:23;;;;;;;0.20;0.10;;;;;;;3.65;100.00;100297.63;5074813;28;20558;-46
2024/02/29 09:10:50;;;;;;;0.20;0.10;;;;;;;3.67;100.00;100290.59;5074701;28;20499;-46
2024/02/29 09:13:17;;;;;;;0.20;0.10;;;;;;;3.73;100.00;100293.25;5075424;28;20442;-46
2024/02/29 09:16:00;;;;;;;0.20;0.10;;;;;;;3.91;100.00;100281.81;5065073;28;20447;-47
2024/02/29 09:18:26;;;;;;;0.20;0.10;;;;;;;4.36;100.00;100283.44;5073894;28;20470;-46
2024/02/29 09:20:53;;;;;;;0.30;0.10;;;;;;;4.05;100.00;100280.03;5074825;28;20546;-47
2024/02/29 09:23:19;;;;;;;0.20;0.10;;;;;;;4.12;100.00;100276.53;5074865;28;20556;-47
2024/02/29 09:25:46;;;;;;;0.20;0.10;;;;;;;4.08;100.00;100287.03;5072709;28;20504;-47
2024/02/29 09:28:12;;;;;;;0.30;0.30;;;;;;;4.01;100.00;100277.44;5074430;28;20506;-46
2024/02/29 09:30:39;;;;;;;0.20;0.10;;;;;;;3.87;100.00;100272.19;5073831;28;20449;-48
2024/02/29 09:33:05;;;;;;;0.20;0.20;;;;;;;3.97;100.00;100280.94;5047917;28;20492;-47
2024/02/29 09:35:32;;;;;;;0.20;0.10;;;;;;;3.85;100.00;100276.59;5073869;28;20493;-47
2024/02/29 09:37:58;;;;;;;0.20;0.20;;;;;;;4.12;100.00;100276.53;5073976;28;20476;-46
2024/02/29 09:40:24;;;;;;;0.20;0.10;;;;;;;4.17;100.00;100268.63;5074490;28;20478;-47
2024/02/29 09:42:52;;;;;;;0.30;0.10;;;;;;;4.52;100.00;100259.69;5074861;28;20446;-47
2024/02/29 09:45:23;;;;;;;0.50;0.50;;;;;;;4.41;100.00;100259.78;5075477;28;20446;-47
2024/02/29 09:47:51;;;;;;;0.20;0.10;;;;;;;4.54;100.00;100253.56;5052522;28;20547;-47
2024/02/29 09:50:18;;;;;;;0.20;0.10;;;;;;;4.58;100.00;100257.06;5075054;28;20488;-47
2024/02/29 09:52:45;;;;;;;0.20;0.10;;;;;;;4.39;100.00;100254.53;5075053;28;20541;-47
2024/02/29 09:55:13;;;;;;;0.30;0.20;;;;;;;4.52;100.00;100255.31;5046249;28;20955;-47
2024/02/29 09:57:41;;;;;;;0.20;0.10;;;;;;;4.73;100.00;100247.31;5062508;28;21049;-46
2024/02/29 10:00:10;;;;;;;0.20;0.10;;;;;;;4.92;99.97;100241.94;5069655;28;20446;-46
2024/02/29 10:02:43;;;;;;;0.20;0.13;;;;;;;5.18;99.77;100242.63;5054845;28;20450;-47
2024/02/29 10:05:10;;;;;;;0.20;0.20;;;;;;;4.69;99.75;100235.06;5076593;28;20464;-47
2024/02/29 10:07:45;;;;;;;0.20;0.10;;;;;;;4.45;100.00;100233.41;5075651;28;20450;-47
2024/02/29 10:10:12;;;;;;;0.20;0.10;;;;;;;4.47;100.00;100229.03;5076157;28;20540;-46
2024/02/29 10:12:40;;;;;;;0.40;0.40;;;;;;;4.28;100.00;100224.75;5075902;28;20453;-47
2024/02/29 10:15:10;;;;;;;1.00;0.97;;;;;;;4.50;100.00;100227.25;5075652;28;20517;-47
2024/02/29 10:17:38;;;;;;;0.20;0.20;;;;;;;4.76;100.00;100230.63;5065580;28;20446;-47
2024/02/29 10:20:09;;;;;;;0.23;0.10;;;;;;;4.72;100.00;100226.25;5075493;28;20859;-47
2024/02/29 10:22:38;;;;;;;0.20;0.20;;;;;;;4.99;100.00;100214.69;5082820;28;20474;-47
2024/02/29 10:25:11;;;;;;;0.20;0.10;;;;;;;5.01;100.00;100224.31;5084622;28;20447;-47
2024/02/29 10:27:38;;;;;;;0.30;0.10;;;;;;;5.14;100.00;100219.81;5082566;28;20446;-47
2024/02/29 10:30:12;;;;;;;0.30;0.20;;;;;;;4.79;100.00;100217.44;5083410;28;20450;-47
2024/02/29 10:32:43;;;;;;;0.20;0.10;;;;;;;4.95;100.00;100208.56;5083586;28;20480;-47
2024/02/29 10:35:21;;;;;;;0.20;0.20;;;;;;;5.23;100.00;100206.59;5084800;28;20485;-47
2024/02/29 10:37:50;;;;;;;0.30;0.20;;;;;;;5.21;100.00;100208.38;5087163;28;20469;-46
2024/02/29 10:40:17;;;;;;;0.27;0.10;;;;;;;5.31;99.66;100209.16;5072981;28;20456;-46
2024/02/29 10:42:48;;;;;;;0.20;0.10;;;;;;;5.32;99.88;100202.97;5072168;28;20450;-47
2024/02/29 10:45:15;;;;;;;0.23;0.20;;;;;;;5.52;99.88;100205.47;5072360;28;20537;-47
2024/02/29 10:47:53;;;;;;;0.20;0.10;;;;;;;5.37;99.58;100190.66;5047406;28;20478;-47
2024/02/29 10:50:27;;;;;;;0.20;0.10;;;;;;;5.33;99.84;100196.81;5072347;28;20492;-46
2024/02/29 10:53:10;;;;;;;0.30;0.17;;;;;;;5.04;100.00;100194.44;5072343;28;20495;-46
2024/02/29 10:55:49;;;;;;;0.27;0.20;;;;;;;5.38;100.00;100184.50;5041314;28;20574;-47
2024/02/29 10:58:25;;;;;;;0.30;0.10;;;;;;;5.38;99.73;100178.34;5069961;28;20485;-47
2024/02/29 11:00:52;;;;;;;0.30;0.20;;;;;;;5.54;100.00;100178.19;5051278;28;20458;-48
2024/02/29 11:03:20;;;;;;;0.30;0.17;;;;;;;5.82;98.21;100184.03;5063992;28;20863;-47
2024/02/29 11:05:48;;;;;;;0.30;0.20;;;;;;;5.75;98.62;100176.19;5072955;28;20887;-46
2024/02/29 11:08:16;;;;;;;0.30;0.20;;;;;;;5.51;98.88;100159.78;5072350;28;21013;-46
2024/02/29 11:10:46;;;;;;;0.30;0.20;;;;;;;6.08;98.18;100157.41;5072573;28;20453;-47
2024/02/29 11:13:20;;;;;;;0.30;0.20;;;;;;;6.07;97.30;100163.56;5073209;28;20457;-47
2024/02/29 11:15:50;;;;;;;0.30;0.20;;;;;;;6.09;97.28;100155.63;5066307;28;20487;-46
2024/02/29 11:18:24;;;;;;;0.30;0.20;;;;;;;5.84;97.08;100155.88;5068529;28;20476;-46
2024/02/29 11:21:02;;;;;;;0.30;0.20;;;;;;;6.29;96.54;100132.47;5072419;28;20530;-47
2024/02/29 11:23:39;;;;;;;0.30;0.20;;;;;;;6.16;96.00;100137.03;5072401;28;20511;-47
2024/02/29 11:26:08;;;;;;;0.30;0.20;;;;;;;6.27;96.43;100128.97;5072291;28;20442;-48
2024/02/29 11:28:40;;;;;;;0.30;0.10;;;;;;;6.09;97.00;100137.16;5072581;28;20469;-47
2024/02/29 11:31:13;;;;;;;1.07;1.03;;;;;;;6.42;96.53;100117.34;5072475;28;20507;-47